Time;durP1;ratioP1;P1;durP2;ratioP2;P2;SDS_P1;SDS_P2;PMS_P1;PMS_P2;Temp;Humidity;BMP_temperature;BMP_pressure;BME280_temperature;BME280_humidity;BME280_pressure;Samples;Min_cycle;Max_cycle;Signal;HPM_P1;HPM_P2
2022/06/26 00:01:27;;;;;;;16.40;9.00;;;;;;;20.54;84.02;95007.59;5002572;28;20630;-62
2022/06/26 00:03:53;;;;;;;4.93;4.45;;;;;;;20.17;85.63;94993.91;5005207;28;20874;-64
2022/06/26 00:06:20;;;;;;;11.85;5.80;;;;;;;20.21;85.66;94996.16;5003859;28;20672;-63
2022/06/26 00:08:47;;;;;;;7.78;5.95;;;;;;;20.39;85.04;94991.44;5003388;28;20292;-64
2022/06/26 00:11:14;;;;;;;6.85;5.10;;;;;;;20.31;85.37;94991.13;5005298;28;20230;-64
2022/06/26 00:13:40;;;;;;;6.57;3.53;;;;;;;19.92;86.91;94997.41;5007120;28;20302;-64
2022/06/26 00:16:07;;;;;;;9.48;3.42;;;;;;;19.91;87.07;94993.19;5007041;28;20666;-64
2022/06/26 00:18:36;;;;;;;9.15;6.85;;;;;;;20.16;86.01;95003.41;5007268;28;20207;-64
2022/06/26 00:21:02;;;;;;;6.03;3.60;;;;;;;20.28;85.43;95005.13;5003251;28;20199;-64
2022/06/26 00:23:29;;;;;;;8.18;4.28;;;;;;;20.49;84.72;95005.34;5003167;28;20203;-64
2022/06/26 00:25:56;;;;;;;8.38;6.45;;;;;;;20.75;83.85;94994.84;5007358;28;20814;-63
2022/06/26 00:28:23;;;;;;;12.23;8.05;;;;;;;20.40;84.32;94994.84;5006362;28;20206;-63
2022/06/26 00:30:50;;;;;;;6.78;6.05;;;;;;;19.86;87.08;94984.97;5001727;28;20223;-63
2022/06/26 00:33:17;;;;;;;6.88;5.88;;;;;;;19.87;87.69;94986.59;5002236;28;22722;-64
2022/06/26 00:35:45;;;;;;;7.57;5.50;;;;;;;20.04;87.24;94988.81;5004040;28;20245;-63
2022/06/26 00:38:12;;;;;;;7.70;7.00;;;;;;;20.01;87.84;94984.69;5002597;28;20215;-64
2022/06/26 00:40:40;;;;;;;7.18;4.68;;;;;;;20.37;86.58;94980.41;5004516;28;20267;-64
2022/06/26 00:43:07;;;;;;;8.15;7.32;;;;;;;20.66;85.28;94986.00;5006304;28;20203;-64
2022/06/26 00:45:34;;;;;;;4.95;4.43;;;;;;;20.77;84.44;94982.63;5004619;28;20211;-64
2022/06/26 00:48:01;;;;;;;5.38;4.10;;;;;;;20.64;84.20;94988.69;5002456;28;20214;-64
2022/06/26 00:50:28;;;;;;;3.10;2.90;;;;;;;20.67;84.06;94988.47;5003486;28;20226;-64
2022/06/26 00:52:57;;;;;;;4.15;3.42;;;;;;;20.41;86.55;94986.16;5003618;28;20203;-64
2022/06/26 00:55:24;;;;;;;12.45;10.20;;;;;;;20.64;85.44;94988.69;5004112;28;20756;-65
2022/06/26 00:57:52;;;;;;;41.28;26.83;;;;;;;20.71;83.89;94981.31;5003515;28;20207;-66
2022/06/26 01:00:20;;;;;;;16.45;13.73;;;;;;;20.52;85.44;94973.31;5002745;28;20217;-64
2022/06/26 01:02:47;;;;;;;12.43;10.25;;;;;;;20.56;85.46;94979.88;4996575;28;20663;-65
2022/06/26 01:05:14;;;;;;;9.18;7.63;;;;;;;20.10;86.62;94988.34;5003676;28;20273;-66
2022/06/26 01:07:41;;;;;;;7.95;7.18;;;;;;;19.67;88.84;94996.56;5002150;28;20715;-64
2022/06/26 01:10:10;;;;;;;12.93;9.82;;;;;;;20.15;87.95;94994.00;5003696;28;20776;-64
2022/06/26 01:12:37;;;;;;;9.73;8.73;;;;;;;20.18;87.83;94998.13;5005839;28;20223;-65
2022/06/26 01:15:07;;;;;;;8.55;7.25;;;;;;;20.29;85.36;94998.19;5006120;28;20279;-66
2022/06/26 01:17:34;;;;;;;9.00;5.18;;;;;;;19.97;85.39;94992.75;5004185;28;21266;-65
2022/06/26 01:20:01;;;;;;;6.40;4.70;;;;;;;19.80;86.05;95003.44;5008468;28;20202;-67
2022/06/26 01:22:29;;;;;;;4.18;3.85;;;;;;;19.70;87.24;95001.53;5004254;28;20203;-65
2022/06/26 01:24:56;;;;;;;5.75;5.30;;;;;;;19.58;87.86;95002.38;5006361;28;20214;-65
2022/06/26 01:27:23;;;;;;;7.93;6.95;;;;;;;19.74;88.73;95001.31;5007084;28;20215;-64
2022/06/26 01:29:50;;;;;;;16.23;14.35;;;;;;;19.92;88.64;94997.41;5008206;28;20202;-65
2022/06/26 01:32:17;;;;;;;7.38;6.25;;;;;;;20.11;87.99;94997.75;5006766;28;20712;-66
2022/06/26 01:34:44;;;;;;;15.43;10.45;;;;;;;20.41;86.25;94997.31;5006570;28;20217;-66
2022/06/26 01:37:11;;;;;;;9.95;7.72;;;;;;;20.39;85.75;95009.50;5008370;28;20296;-65
2022/06/26 01:39:39;;;;;;;10.70;5.35;;;;;;;19.78;88.20;95011.31;5010392;28;20261;-65
2022/06/26 01:42:06;;;;;;;9.30;5.97;;;;;;;20.00;87.82;95005.44;5009133;28;20207;-65
2022/06/26 01:44:33;;;;;;;5.63;5.20;;;;;;;20.15;87.67;95006.91;5008133;28;20603;-64
2022/06/26 01:46:59;;;;;;;27.98;22.27;;;;;;;20.09;88.16;95004.78;5009630;28;21063;-65
2022/06/26 01:49:26;;;;;;;16.90;10.70;;;;;;;20.16;88.24;95013.72;5006897;28;20683;-66
2022/06/26 01:51:53;;;;;;;6.35;4.90;;;;;;;20.42;86.39;95022.19;5006883;28;20216;-64
2022/06/26 01:54:20;;;;;;;8.43;6.60;;;;;;;20.63;85.21;95017.22;5007996;28;20213;-64
2022/06/26 01:56:49;;;;;;;7.85;4.57;;;;;;;20.78;84.27;95031.59;5008561;28;20211;-65
2022/06/26 01:59:15;;;;;;;7.57;6.80;;;;;;;20.71;84.47;95030.41;5007733;28;20645;-65
2022/06/26 02:01:42;;;;;;;5.70;5.15;;;;;;;20.07;86.77;95024.69;5009437;28;20199;-65
2022/06/26 02:04:12;;;;;;;11.30;7.57;;;;;;;19.80;88.66;95029.22;5007450;28;20308;-65
2022/06/26 02:06:39;;;;;;;9.73;8.13;;;;;;;19.64;89.11;95030.31;5008126;28;20218;-65
2022/06/26 02:13:35;;;;;;;5.25;4.75;;;;;;;19.30;91.16;95043.84;5007043;28;20664;-65
2022/06/26 02:14:38;;;;;;;15.77;10.57;;;;;;;19.24;91.98;95044.25;5006864;28;21508;-66
2022/06/26 02:17:05;;;;;;;26.30;17.65;;;;;;;19.47;91.18;95038.34;5007292;28;20269;-65
2022/06/26 02:19:32;;;;;;;9.52;7.15;;;;;;;19.81;90.00;95041.19;5007250;28;20877;-65
2022/06/26 02:21:58;;;;;;;7.68;5.88;;;;;;;20.03;88.47;95038.75;5009087;28;20249;-65
2022/06/26 02:24:25;;;;;;;4.93;4.53;;;;;;;19.89;89.61;95042.31;5005168;28;20199;-65
2022/06/26 02:26:52;;;;;;;4.32;3.83;;;;;;;19.88;90.12;95034.69;5009010;28;20214;-64
2022/06/26 02:29:20;;;;;;;5.25;4.68;;;;;;;19.92;90.00;95030.94;5009868;28;20835;-66
2022/06/26 02:31:47;;;;;;;5.45;4.60;;;;;;;19.84;90.51;95033.22;5008810;28;20230;-65
2022/06/26 02:34:13;;;;;;;4.20;3.55;;;;;;;19.97;90.32;95034.03;5007980;28;20211;-64
2022/06/26 02:36:40;;;;;;;7.70;5.13;;;;;;;19.73;91.99;95035.75;5008886;28;20219;-65
2022/06/26 02:39:07;;;;;;;7.78;4.57;;;;;;;19.47;93.50;95040.94;5005641;28;20292;-65
2022/06/26 02:41:34;;;;;;;5.38;4.18;;;;;;;19.72;92.77;95039.25;5008665;28;20211;-65
2022/06/26 02:44:00;;;;;;;7.47;5.15;;;;;;;19.84;91.46;95041.78;5007511;28;20203;-64
2022/06/26 02:46:28;;;;;;;7.30;5.38;;;;;;;20.04;90.27;95055.91;5008899;28;20211;-64
2022/06/26 02:48:55;;;;;;;6.63;4.70;;;;;;;20.14;89.44;95051.72;5008696;28;20841;-64
2022/06/26 02:51:22;;;;;;;5.20;4.80;;;;;;;20.27;88.48;95055.06;5008490;28;20223;-64
2022/06/26 02:53:49;;;;;;;6.25;4.35;;;;;;;20.22;88.50;95046.84;5007376;28;20272;-65
2022/06/26 02:56:15;;;;;;;4.38;3.83;;;;;;;20.37;87.79;95052.66;5006270;28;20203;-64
2022/06/26 02:58:42;;;;;;;4.18;3.88;;;;;;;20.44;87.29;95055.66;5008430;28;20213;-64
2022/06/26 03:01:09;;;;;;;9.02;4.20;;;;;;;20.38;87.20;95049.16;5009523;28;22216;-63
2022/06/26 03:03:37;;;;;;;4.43;3.95;;;;;;;20.43;86.90;95056.56;5008329;28;20280;-64
2022/06/26 03:06:04;;;;;;;5.38;3.83;;;;;;;20.57;86.41;95051.22;5008905;28;20296;-64
2022/06/26 03:08:30;;;;;;;3.95;3.55;;;;;;;20.41;87.18;95053.28;5008608;28;21029;-64
2022/06/26 03:10:57;;;;;;;5.53;3.67;;;;;;;20.49;86.36;95067.28;5007062;28;20781;-64
2022/06/26 03:13:24;;;;;;;8.05;4.88;;;;;;;20.07;88.21;95065.97;5008133;28;20268;-63
2022/06/26 03:15:51;;;;;;;4.85;4.35;;;;;;;19.99;89.08;95065.72;5007427;28;20207;-63
2022/06/26 03:18:17;;;;;;;4.65;4.25;;;;;;;20.12;88.95;95063.88;5007924;28;21042;-64
2022/06/26 03:20:46;;;;;;;6.43;4.30;;;;;;;20.05;89.06;95062.66;5007955;28;21532;-64
2022/06/26 03:23:13;;;;;;;5.00;4.18;;;;;;;19.65;90.05;95068.03;5009535;28;20666;-64
2022/06/26 03:25:40;;;;;;;6.57;4.30;;;;;;;19.45;91.27;95067.75;5031061;22;20296;-64
2022/06/26 03:28:07;;;;;;;8.55;4.28;;;;;;;19.25;92.52;95074.25;5011774;28;20206;-64
2022/06/26 03:30:34;;;;;;;9.63;5.38;;;;;;;19.39;92.50;95068.97;5010650;28;20202;-64
2022/06/26 03:33:00;;;;;;;4.82;4.40;;;;;;;19.83;90.08;95075.44;5011628;28;20735;-64
2022/06/26 03:35:27;;;;;;;8.93;4.60;;;;;;;19.48;92.29;95076.09;5010533;28;20962;-64
2022/06/26 03:37:55;;;;;;;4.50;4.10;;;;;;;19.40;92.41;95082.69;5011179;28;20206;-64
2022/06/26 03:40:22;;;;;;;8.55;4.55;;;;;;;19.65;91.71;95083.50;5010028;28;20218;-64
2022/06/26 03:42:49;;;;;;;4.55;4.22;;;;;;;19.97;89.45;95080.47;5009909;28;20233;-65
2022/06/26 03:45:16;;;;;;;6.20;4.00;;;;;;;19.92;88.82;95092.84;5010024;28;20202;-65
2022/06/26 03:47:43;;;;;;;11.10;4.53;;;;;;;19.87;89.39;95089.75;5011017;28;20711;-64
2022/06/26 03:50:10;;;;;;;4.88;4.50;;;;;;;19.84;89.74;95095.97;5011534;28;20207;-65
2022/06/26 03:52:37;;;;;;;8.18;5.22;;;;;;;19.95;88.92;95090.06;5010791;28;20625;-65
2022/06/26 03:55:06;;;;;;;5.45;4.88;;;;;;;19.57;90.23;95090.94;5009671;28;20211;-64
2022/06/26 03:57:32;;;;;;;5.63;4.93;;;;;;;19.24;92.07;95091.47;5009451;28;20260;-64
2022/06/26 03:59:59;;;;;;;5.93;4.95;;;;;;;19.15;93.09;95092.06;5011424;28;20248;-64
2022/06/26 04:02:26;;;;;;;8.57;5.15;;;;;;;20.17;89.94;95089.38;5010258;28;20203;-65
2022/06/26 04:04:53;;;;;;;7.75;4.63;;;;;;;21.99;80.14;95099.03;5004177;28;20222;-64
2022/06/26 04:07:20;;;;;;;5.05;4.03;;;;;;;23.98;72.67;95099.19;4997010;28;20269;-65
2022/06/26 04:09:47;;;;;;;10.85;3.63;;;;;;;25.31;66.09;95096.88;4995623;28;20531;-65
2022/06/26 04:12:15;;;;;;;9.82;8.75;;;;;;;25.61;63.98;95095.84;4996632;28;20222;-65
2022/06/26 04:14:42;;;;;;;14.02;7.47;;;;;;;25.49;64.30;95088.34;4995100;28;20204;-64
2022/06/26 04:17:09;;;;;;;12.23;9.07;;;;;;;25.70;64.00;95095.03;4995151;28;20207;-64
2022/06/26 04:19:36;;;;;;;10.73;6.65;;;;;;;26.00;62.57;95087.88;4995563;28;21041;-64
2022/06/26 04:22:03;;;;;;;12.93;10.45;;;;;;;25.07;64.66;95091.28;4995645;28;20206;-64
2022/06/26 04:24:30;;;;;;;12.02;9.57;;;;;;;24.54;66.70;95080.44;4995151;28;20203;-64
2022/06/26 04:26:57;;;;;;;9.00;7.25;;;;;;;23.47;69.79;95086.25;4999086;28;20231;-63
2022/06/26 04:29:25;;;;;;;10.88;6.88;;;;;;;22.66;73.63;95082.53;4995822;28;20683;-64
2022/06/26 04:31:52;;;;;;;9.32;5.18;;;;;;;22.89;73.12;95083.28;4997793;28;20234;-64
2022/06/26 04:34:18;;;;;;;6.50;5.85;;;;;;;22.97;73.05;95086.91;4995557;28;20210;-64
2022/06/26 04:36:45;;;;;;;5.60;5.10;;;;;;;22.77;73.92;95085.06;4994297;28;20676;-64
2022/06/26 04:39:12;;;;;;;6.82;4.95;;;;;;;22.71;74.82;95091.59;4994919;28;20207;-64
2022/06/26 04:41:39;;;;;;;5.35;4.85;;;;;;;22.75;74.37;95094.75;4994703;28;20296;-64
2022/06/26 04:44:07;;;;;;;10.90;4.68;;;;;;;22.35;75.96;95095.34;4995100;28;20277;-64
2022/06/26 04:46:36;;;;;;;5.65;4.75;;;;;;;21.96;78.13;95090.69;4995221;28;20225;-65
2022/06/26 04:49:04;;;;;;;5.55;5.15;;;;;;;23.48;73.78;95093.91;4999374;28;20207;-64
2022/06/26 04:51:31;;;;;;;6.07;3.97;;;;;;;25.30;66.36;95084.81;4999540;28;20738;-68
2022/06/26 04:53:58;;;;;;;5.68;4.32;;;;;;;25.87;63.64;95092.63;4998934;28;20211;-66
2022/06/26 04:56:24;;;;;;;4.63;4.07;;;;;;;26.71;61.17;95094.09;4999872;28;20202;-65
2022/06/26 04:58:54;;;;;;;4.70;4.00;;;;;;;27.89;57.57;95092.84;4999636;28;20208;-65
2022/06/26 05:01:21;;;;;;;5.85;3.60;;;;;;;29.42;52.82;95091.56;4998323;28;20231;-66
2022/06/26 05:03:49;;;;;;;5.60;3.40;;;;;;;29.39;52.44;95091.88;5000331;28;20677;-65
2022/06/26 05:06:16;;;;;;;5.15;3.95;;;;;;;28.12;55.08;95099.16;5000431;28;20987;-65
2022/06/26 05:08:43;;;;;;;6.05;4.22;;;;;;;27.21;57.48;95105.78;5001105;28;20207;-65
2022/06/26 05:11:09;;;;;;;6.63;3.83;;;;;;;26.34;59.89;95107.22;4999859;28;20269;-65
2022/06/26 05:13:36;;;;;;;6.97;3.95;;;;;;;25.47;62.37;95101.50;4999162;28;20722;-64
2022/06/26 05:16:04;;;;;;;6.90;3.90;;;;;;;24.78;64.64;95109.47;4998068;28;20211;-64
2022/06/26 05:18:30;;;;;;;5.90;3.35;;;;;;;24.21;67.30;95112.78;4999539;28;20207;-64
2022/06/26 05:20:59;;;;;;;4.72;4.32;;;;;;;23.96;68.27;95116.66;4998358;28;20731;-64
2022/06/26 05:23:26;;;;;;;5.85;4.07;;;;;;;23.70;69.74;95122.31;4998809;28;20272;-65
2022/06/26 05:25:53;;;;;;;7.53;4.53;;;;;;;23.94;68.89;95119.41;4998371;28;20238;-64
2022/06/26 05:28:20;;;;;;;13.95;4.60;;;;;;;24.01;68.93;95130.06;4997679;28;20219;-64
2022/06/26 05:30:47;;;;;;;5.13;4.22;;;;;;;23.88;69.62;95129.47;5000943;28;20203;-65
2022/06/26 05:33:13;;;;;;;8.65;4.45;;;;;;;23.77;70.42;95127.78;4999953;28;21562;-64
2022/06/26 05:35:40;;;;;;;4.95;4.47;;;;;;;23.72;70.44;95135.97;4998322;28;20199;-64
2022/06/26 05:38:09;;;;;;;6.95;4.00;;;;;;;24.01;69.96;95140.44;4999689;28;20707;-64
2022/06/26 05:40:35;;;;;;;14.80;12.43;;;;;;;24.49;68.12;95139.81;4998540;28;20207;-64
2022/06/26 05:43:02;;;;;;;14.82;13.27;;;;;;;25.63;64.60;95127.78;4999926;28;20936;-64
2022/06/26 05:45:29;;;;;;;7.70;4.90;;;;;;;28.24;56.92;95134.50;5001284;28;20585;-64
2022/06/26 05:47:56;;;;;;;9.50;4.07;;;;;;;30.91;48.93;95135.28;5000002;28;20207;-65
2022/06/26 05:50:23;;;;;;;6.30;4.30;;;;;;;32.45;44.89;95138.28;4999069;28;20249;-65
2022/06/26 05:52:50;;;;;;;5.35;4.72;;;;;;;33.55;42.21;95140.69;4998740;28;20242;-65
2022/06/26 05:55:19;;;;;;;7.40;4.15;;;;;;;32.90;43.01;95144.31;4997295;28;20208;-65
2022/06/26 05:57:46;;;;;;;12.45;6.28;;;;;;;31.65;44.73;95140.78;4998592;28;20242;-65
2022/06/26 06:00:13;;;;;;;6.22;5.10;;;;;;;29.92;48.58;95145.50;4997294;28;20218;-66
2022/06/26 06:02:40;;;;;;;5.75;4.63;;;;;;;27.94;53.52;95150.66;4998246;28;20720;-65
2022/06/26 06:05:08;;;;;;;8.38;4.35;;;;;;;28.68;53.57;95140.38;4997741;28;20230;-65
2022/06/26 06:07:36;;;;;;;8.45;4.63;;;;;;;30.73;48.35;95139.94;5000353;28;20207;-64
2022/06/26 06:10:03;;;;;;;10.07;4.25;;;;;;;31.85;45.99;95135.84;4998915;28;20208;-65
2022/06/26 06:12:32;;;;;;;5.22;4.15;;;;;;;32.96;43.44;95136.47;4997395;28;20297;-65
2022/06/26 06:14:58;;;;;;;10.23;4.35;;;;;;;33.31;42.51;95139.28;4998404;28;20564;-65
2022/06/26 06:17:37;;;;;;;5.30;4.25;;;;;;;33.06;42.38;95142.25;4997581;28;20208;-65
2022/06/26 06:20:05;;;;;;;5.80;4.50;;;;;;;32.66;43.48;95134.91;4998099;28;20208;-65
2022/06/26 06:22:32;;;;;;;4.75;3.83;;;;;;;32.43;44.13;95146.38;4996642;28;20206;-65
2022/06/26 06:24:59;;;;;;;6.97;3.72;;;;;;;31.85;44.78;95138.47;4997301;28;20250;-66
2022/06/26 06:27:26;;;;;;;4.60;3.85;;;;;;;31.23;46.12;95151.78;5001067;28;21923;-67
2022/06/26 06:29:54;;;;;;;5.00;3.75;;;;;;;30.19;48.86;95146.91;4996992;28;20262;-65
2022/06/26 06:32:21;;;;;;;4.65;4.22;;;;;;;30.17;48.79;95143.66;4997111;28;20586;-65
2022/06/26 06:34:48;;;;;;;5.20;4.13;;;;;;;30.06;49.33;95142.19;4996704;28;20204;-64
2022/06/26 06:37:15;;;;;;;4.25;3.92;;;;;;;30.22;49.44;95146.56;4997451;28;20657;-64
2022/06/26 06:39:43;;;;;;;4.40;3.90;;;;;;;30.58;48.75;95147.75;4996890;28;20203;-65
2022/06/26 06:42:10;;;;;;;3.90;3.60;;;;;;;31.01;47.10;95142.91;4997711;28;20213;-65
2022/06/26 06:44:37;;;;;;;16.77;4.90;;;;;;;30.34;49.01;95138.16;4996916;28;20231;-65
2022/06/26 06:47:05;;;;;;;4.75;4.38;;;;;;;30.03;50.49;95142.53;4999277;28;20210;-65
2022/06/26 06:49:32;;;;;;;13.43;9.85;;;;;;;30.51;49.34;95143.31;4997007;28;20727;-65
2022/06/26 06:51:59;;;;;;;5.22;4.78;;;;;;;30.57;48.53;95146.13;4997253;28;20312;-64
2022/06/26 06:54:26;;;;;;;5.25;3.70;;;;;;;30.29;49.00;95143.09;4996278;28;20231;-64
2022/06/26 06:56:53;;;;;;;4.32;4.00;;;;;;;30.16;48.94;95142.84;4996155;28;22351;-65
2022/06/26 06:59:20;;;;;;;5.60;3.85;;;;;;;30.23;49.26;95143.75;4994097;28;20228;-65
2022/06/26 07:01:47;;;;;;;4.07;3.78;;;;;;;30.02;48.86;95135.66;4997488;28;20212;-65
2022/06/26 07:04:15;;;;;;;4.20;3.80;;;;;;;29.13;50.62;95138.34;4997516;28;20286;-64
2022/06/26 07:06:42;;;;;;;4.63;4.22;;;;;;;29.26;51.39;95141.25;4998992;28;20211;-68
2022/06/26 07:09:09;;;;;;;5.90;4.82;;;;;;;29.40;50.70;95143.28;4997568;28;20673;-65
2022/06/26 07:11:36;;;;;;;5.38;3.80;;;;;;;29.07;52.02;95135.38;4996210;28;20211;-64
2022/06/26 07:14:03;;;;;;;6.03;4.10;;;;;;;29.29;51.18;95133.09;4998056;28;20231;-65
2022/06/26 07:16:30;;;;;;;5.18;3.95;;;;;;;29.16;51.86;95140.63;4996610;28;20211;-65
2022/06/26 07:18:57;;;;;;;6.15;3.60;;;;;;;29.23;52.16;95144.22;4995795;28;20218;-65
2022/06/26 07:21:25;;;;;;;4.20;3.80;;;;;;;28.76;52.75;95144.78;4997491;28;20254;-65
2022/06/26 07:23:52;;;;;;;6.95;3.50;;;;;;;28.69;52.22;95146.41;4997584;28;20196;-66
2022/06/26 07:26:19;;;;;;;4.75;3.45;;;;;;;28.74;53.20;95142.31;4995969;28;20289;-66
2022/06/26 07:28:45;;;;;;;6.63;4.13;;;;;;;28.47;53.43;95141.75;4998431;28;20592;-64
2022/06/26 07:31:12;;;;;;;7.25;3.63;;;;;;;28.41;54.54;95143.22;4995651;28;20268;-64
2022/06/26 07:36:23;;;;;;;4.63;3.03;;;;;;;28.60;53.97;95147.38;4996348;28;20261;-64
2022/06/26 07:38:51;;;;;;;5.15;3.30;;;;;;;28.69;53.67;95141.19;4999582;28;20210;-65
2022/06/26 07:41:18;;;;;;;4.18;3.72;;;;;;;28.86;53.07;95132.41;4996428;28;20208;-64
2022/06/26 07:43:45;;;;;;;6.63;3.50;;;;;;;28.67;53.28;95137.91;4997319;28;20423;-64
2022/06/26 07:46:11;;;;;;;8.18;4.25;;;;;;;28.73;53.51;95129.41;4998351;28;20207;-65
2022/06/26 07:48:38;;;;;;;5.72;3.67;;;;;;;28.60;53.73;95137.72;4997027;28;20211;-65
2022/06/26 07:51:05;;;;;;;4.82;3.20;;;;;;;28.64;52.81;95130.38;4995160;28;20326;-65
2022/06/26 07:53:32;;;;;;;7.20;3.50;;;;;;;28.47;53.35;95129.50;4995818;28;20227;-64
2022/06/26 07:56:00;;;;;;;8.57;7.82;;;;;;;28.06;55.83;95131.94;4995848;28;20242;-64
2022/06/26 07:58:27;;;;;;;5.57;5.00;;;;;;;27.84;54.98;95135.09;4996462;28;20258;-64
2022/06/26 08:00:54;;;;;;;55.20;36.67;;;;;;;27.59;56.35;95141.97;4996451;28;20254;-65
2022/06/26 08:03:20;;;;;;;56.20;39.38;;;;;;;27.80;55.41;95133.75;4997602;28;20207;-67
2022/06/26 08:05:47;;;;;;;6.18;4.28;;;;;;;27.84;55.49;95129.06;4997116;28;20229;-64
2022/06/26 08:08:14;;;;;;;8.90;4.32;;;;;;;27.94;54.24;95127.16;4996335;28;21444;-64
2022/06/26 08:10:41;;;;;;;9.80;3.90;;;;;;;27.94;55.87;95129.78;4993755;28;20204;-64
2022/06/26 08:13:09;;;;;;;5.45;4.13;;;;;;;27.87;55.12;95126.13;4994172;28;20694;-64
2022/06/26 08:15:37;;;;;;;5.82;4.10;;;;;;;28.09;55.38;95122.97;4996944;28;20736;-65
2022/06/26 08:18:04;;;;;;;4.55;3.72;;;;;;;28.08;55.29;95129.16;4996752;28;20204;-66
2022/06/26 08:20:31;;;;;;;7.25;3.70;;;;;;;28.24;55.48;95124.03;4997274;28;21274;-67
2022/06/26 08:22:58;;;;;;;5.85;4.22;;;;;;;28.52;54.64;95134.25;4994936;28;20623;-66
2022/06/26 08:25:25;;;;;;;8.60;3.40;;;;;;;28.40;54.39;95131.94;4995361;28;20298;-65
2022/06/26 08:27:51;;;;;;;8.10;4.03;;;;;;;28.24;55.11;95129.25;4996347;28;20211;-68
2022/06/26 08:30:20;;;;;;;7.43;4.40;;;;;;;28.36;53.75;95133.25;4995800;28;20199;-67
2022/06/26 08:32:46;;;;;;;11.50;8.38;;;;;;;28.27;54.72;95130.75;4994673;28;20207;-65
2022/06/26 08:35:14;;;;;;;5.63;3.88;;;;;;;27.75;54.78;95134.22;4996029;28;20208;-65
2022/06/26 08:37:41;;;;;;;5.22;3.40;;;;;;;27.59;55.82;95135.91;4997034;28;20207;-66
2022/06/26 08:40:09;;;;;;;15.25;9.02;;;;;;;27.65;56.11;95130.09;4995912;28;20207;-66
2022/06/26 08:42:39;;;;;;;9.98;7.53;;;;;;;27.41;55.01;95128.09;4996770;28;20326;-65
2022/06/26 08:45:07;;;;;;;8.15;4.65;;;;;;;27.33;56.13;95135.88;4995255;28;20203;-65
2022/06/26 08:47:37;;;;;;;10.93;3.70;;;;;;;27.57;56.37;95135.22;4995738;28;20213;-65
2022/06/26 08:50:05;;;;;;;15.50;7.22;;;;;;;27.68;55.51;95130.59;4996890;28;20207;-66
2022/06/26 08:52:33;;;;;;;4.85;4.00;;;;;;;27.70;54.76;95133.88;4996053;28;20207;-66
2022/06/26 08:55:02;;;;;;;4.53;4.10;;;;;;;27.80;53.27;95127.72;4995740;28;20308;-68
2022/06/26 08:57:29;;;;;;;4.13;3.08;;;;;;;27.40;53.31;95121.25;4995589;28;20215;-66
2022/06/26 08:59:56;;;;;;;8.25;3.85;;;;;;;27.47;55.02;95124.88;4996546;28;20689;-66
2022/06/26 09:02:23;;;;;;;3.03;2.80;;;;;;;27.47;54.21;95124.88;4996861;28;20207;-66
2022/06/26 09:04:51;;;;;;;6.18;3.22;;;;;;;27.33;56.13;95130.66;4995097;28;20227;-65
2022/06/26 09:07:19;;;;;;;3.88;3.15;;;;;;;27.72;54.79;95126.69;4994957;28;20632;-67
2022/06/26 09:09:46;;;;;;;6.68;3.30;;;;;;;27.72;55.24;95118.03;4994756;28;20270;-65
2022/06/26 09:12:12;;;;;;;7.00;5.00;;;;;;;28.02;53.66;95116.72;4994433;28;20211;-66
2022/06/26 09:14:39;;;;;;;5.32;4.63;;;;;;;28.24;51.36;95116.19;4998168;28;20717;-64
2022/06/26 09:17:06;;;;;;;4.50;4.15;;;;;;;28.16;53.65;95113.53;4998093;28;20196;-65
2022/06/26 09:19:36;;;;;;;9.77;7.20;;;;;;;28.31;54.38;95111.97;4996642;28;20858;-66
2022/06/26 09:22:10;;;;;;;10.90;6.40;;;;;;;28.49;52.36;95111.88;4993079;28;20229;-66
2022/06/26 09:24:38;;;;;;;4.93;3.70;;;;;;;28.54;50.29;95106.97;4995469;28;20212;-66
2022/06/26 09:27:10;;;;;;;6.03;3.10;;;;;;;28.69;49.86;95113.25;4995411;28;20244;-66
2022/06/26 09:29:37;;;;;;;10.40;3.70;;;;;;;28.91;51.57;95109.22;4994336;28;20602;-65
2022/06/26 09:32:09;;;;;;;7.10;3.35;;;;;;;28.84;49.74;95104.78;4993148;28;20871;-66
2022/06/26 09:34:36;;;;;;;4.90;4.40;;;;;;;29.02;49.73;95103.66;5000165;28;20234;-66
2022/06/26 09:37:05;;;;;;;4.32;3.88;;;;;;;28.91;50.84;95106.59;5000195;28;20650;-65
2022/06/26 09:39:35;;;;;;;173.00;115.60;;;;;;;28.95;50.06;95107.91;4998951;28;20650;-65
2022/06/26 09:42:16;;;;;;;17.90;12.43;;;;;;;29.01;49.91;95102.00;4997338;28;20203;-65
2022/06/26 09:44:44;;;;;;;30.35;21.00;;;;;;;29.09;49.73;95112.47;4998472;28;20208;-66
2022/06/26 09:47:21;;;;;;;25.63;17.98;;;;;;;29.08;48.54;95116.09;4999347;28;20362;-67
2022/06/26 09:49:49;;;;;;;6.05;5.55;;;;;;;28.98;48.40;95123.25;4998571;28;20271;-65
2022/06/26 09:52:16;;;;;;;19.52;15.98;;;;;;;29.21;47.79;95120.00;4999813;28;20219;-64
2022/06/26 09:54:45;;;;;;;14.95;12.75;;;;;;;29.34;48.32;95115.91;4999754;28;20227;-65
2022/06/26 09:57:13;;;;;;;4.50;3.72;;;;;;;29.47;46.82;95110.19;5001349;28;20208;-65
2022/06/26 09:59:41;;;;;;;5.55;5.05;;;;;;;29.41;46.48;95116.13;4997965;28;20294;-64
2022/06/26 10:07:42;;;;;;;9.38;7.18;;;;;;;29.03;48.39;95112.31;4998974;28;20898;-66
2022/06/26 10:10:10;;;;;;;11.43;9.25;;;;;;;28.62;48.19;95103.56;4998220;28;20204;-66
2022/06/26 10:12:38;;;;;;;10.88;9.75;;;;;;;28.32;50.03;95113.63;4998081;28;20616;-66
2022/06/26 10:15:06;;;;;;;18.73;14.88;;;;;;;28.07;49.95;95109.25;4998801;28;20231;-66
2022/06/26 10:17:51;;;;;;;11.30;7.13;;;;;;;27.76;50.04;95101.09;4999171;28;20207;-66
2022/06/26 10:20:20;;;;;;;33.50;22.20;;;;;;;28.03;50.42;95097.47;4995218;28;20207;-66
2022/06/26 10:22:47;;;;;;;12.77;11.45;;;;;;;28.49;48.80;95092.75;4994559;28;20211;-66
2022/06/26 10:25:24;;;;;;;14.80;9.63;;;;;;;28.84;48.00;95086.47;4998154;28;21042;-70
2022/06/26 10:27:51;;;;;;;6.15;5.18;;;;;;;28.81;47.46;95082.38;4996359;28;20271;-66
2022/06/26 10:30:20;;;;;;;10.30;5.82;;;;;;;28.91;47.56;95083.06;4996324;28;20312;-65
2022/06/26 10:32:47;;;;;;;5.50;4.03;;;;;;;28.92;46.40;95076.84;4996901;28;20203;-67
2022/06/26 10:35:15;;;;;;;32.78;23.92;;;;;;;28.94;47.00;95077.50;4997034;28;20898;-70
2022/06/26 10:37:44;;;;;;;22.33;16.92;;;;;;;29.00;45.43;95076.81;4998526;28;20298;-66
2022/06/26 10:43:01;;;;;;;7.38;4.40;;;;;;;29.15;45.90;95074.38;4993469;28;20211;-67
2022/06/26 10:45:30;;;;;;;5.00;3.17;;;;;;;29.07;43.23;95072.56;4994764;28;20313;-64
2022/06/26 10:47:58;;;;;;;3.90;2.50;;;;;;;29.06;44.22;95070.94;4996285;28;20242;-65
2022/06/26 10:50:34;;;;;;;7.93;3.50;;;;;;;29.20;44.67;95077.28;4996316;28;20207;-64
2022/06/26 10:53:30;;;;;;;3.42;2.00;;;;;;;28.94;43.09;95069.66;4996560;28;20195;-64
2022/06/26 10:55:58;;;;;;;2.13;2.00;;;;;;;29.07;44.68;95067.34;4959036;28;20819;-65
2022/06/26 10:58:29;;;;;;;11.18;2.67;;;;;;;29.16;43.10;95064.72;4996152;28;20763;-65
2022/06/26 11:00:58;;;;;;;3.42;2.28;;;;;;;28.99;44.21;95067.34;4996873;28;20220;-68
2022/06/26 11:03:25;;;;;;;6.10;2.42;;;;;;;29.24;44.13;95067.31;4996290;28;20285;-66
2022/06/26 11:05:58;;;;;;;3.70;1.98;;;;;;;29.21;44.33;95067.66;4995558;28;20280;-65
2022/06/26 11:08:30;;;;;;;2.35;2.15;;;;;;;29.29;41.71;95060.63;4997517;28;20266;-64
2022/06/26 11:11:00;;;;;;;5.68;2.08;;;;;;;28.81;40.89;95063.25;4996495;28;20736;-65
2022/06/26 11:13:28;;;;;;;1.80;1.70;;;;;;;28.17;43.54;95062.91;4996223;28;20212;-63
2022/06/26 11:15:55;;;;;;;5.15;1.75;;;;;;;28.09;43.84;95068.09;4998405;28;20204;-64
2022/06/26 11:18:22;;;;;;;3.05;1.80;;;;;;;28.34;42.68;95059.41;4998092;28;20276;-63
2022/06/26 11:20:51;;;;;;;5.10;2.13;;;;;;;28.63;42.84;95058.16;4995958;28;20309;-63
2022/06/26 11:23:20;;;;;;;4.93;2.00;;;;;;;29.00;43.37;95060.31;4997247;28;20216;-63
2022/06/26 11:25:49;;;;;;;2.78;1.77;;;;;;;29.16;42.98;95062.13;4996196;28;20777;-66
2022/06/26 11:28:16;;;;;;;4.97;1.70;;;;;;;29.05;43.90;95064.06;4997611;28;20211;-67
2022/06/26 11:30:46;;;;;;;3.78;2.17;;;;;;;28.90;44.02;95064.91;4997348;28;20291;-66
2022/06/26 11:33:13;;;;;;;6.25;2.22;;;;;;;28.63;44.53;95064.19;4991296;28;20230;-67
2022/06/26 11:35:41;;;;;;;3.00;1.63;;;;;;;28.42;44.73;95067.25;4998363;28;20225;-64
2022/06/26 11:38:17;;;;;;;2.60;2.03;;;;;;;28.52;45.90;95059.25;4994610;28;22019;-67
2022/06/26 11:40:44;;;;;;;3.05;2.55;;;;;;;28.67;45.52;95064.69;4995503;28;20207;-63
2022/06/26 11:43:12;;;;;;;3.58;2.10;;;;;;;28.75;45.52;95062.06;4996089;28;20215;-65
2022/06/26 11:45:40;;;;;;;7.90;2.63;;;;;;;28.64;45.69;95065.00;4996411;28;20225;-65
2022/06/26 11:48:12;;;;;;;36.70;24.45;;;;;;;28.58;45.81;95061.25;4997761;28;20230;-65